Time;durP1;ratioP1;P1;durP2;ratioP2;P2;SDS_P1;SDS_P2;PMS_P1;PMS_P2;Temp;Humidity;BMP_temperature;BMP_pressure;BME280_temperature;BME280_humidity;BME280_pressure;Samples;Min_cycle;Max_cycle;Signal;HPM_P1;HPM_P2
2021/08/21 00:00:34;;;;;;;10.95;5.95;;;;;;;;;;5073832;28;20122;-66
2021/08/21 00:03:01;;;;;;;13.68;6.20;;;;;;;;;;5071215;28;20021;-66
2021/08/21 00:05:27;;;;;;;25.63;7.00;;;;;;;;;;5074368;28;20462;-67
2021/08/21 00:07:53;;;;;;;14.77;6.80;;;;;;;;;;5074121;28;20020;-66
2021/08/21 00:10:20;;;;;;;11.02;6.07;;;;;;;;;;5071624;28;20028;-66
2021/08/21 00:12:46;;;;;;;10.63;7.05;;;;;;;;;;5072011;28;20438;-66
2021/08/21 00:15:13;;;;;;;13.10;6.65;;;;;;;;;;5066371;28;20048;-66
2021/08/21 00:17:39;;;;;;;9.90;5.95;;;;;;;;;;5073195;28;20097;-67
2021/08/21 00:20:07;;;;;;;11.80;5.72;;;;;;;;;;5070948;28;20053;-67
2021/08/21 00:22:33;;;;;;;25.02;6.50;;;;;;;;;;5071992;28;20024;-67
2021/08/21 00:24:59;;;;;;;10.77;5.82;;;;;;;;;;5071775;28;20025;-66
2021/08/21 00:27:27;;;;;;;9.98;5.53;;;;;;;;;;5072376;28;20697;-67
2021/08/21 00:29:56;;;;;;;16.95;7.28;;;;;;;;;;5073238;28;20110;-66
2021/08/21 00:32:22;;;;;;;16.73;6.65;;;;;;;;;;5068664;28;20476;-66
2021/08/21 00:34:48;;;;;;;16.60;6.75;;;;;;;;;;5069223;28;20038;-66
2021/08/21 00:37:15;;;;;;;15.32;6.45;;;;;;;;;;5070581;28;20661;-66
2021/08/21 00:39:41;;;;;;;20.13;6.88;;;;;;;;;;5072052;28;20037;-66
2021/08/21 00:42:08;;;;;;;15.48;6.50;;;;;;;;;;5073157;28;20042;-66
2021/08/21 00:44:35;;;;;;;12.65;6.30;;;;;;;;;;5069688;28;20050;-67
2021/08/21 00:47:17;;;;;;;15.48;6.95;;;;;;;;;;5074671;28;20035;-66
2021/08/21 00:49:46;;;;;;;12.43;6.25;;;;;;;;;;5066966;28;20032;-67
2021/08/21 00:52:14;;;;;;;16.23;7.28;;;;;;;;;;5072592;28;20028;-67
2021/08/21 00:54:40;;;;;;;13.30;6.28;;;;;;;;;;5069195;28;20040;-66
2021/08/21 00:57:11;;;;;;;12.82;6.63;;;;;;;;;;5071700;28;20047;-69
2021/08/21 00:59:38;;;;;;;10.43;6.00;;;;;;;;;;5075643;28;20064;-66
2021/08/21 01:02:04;;;;;;;14.02;6.65;;;;;;;;;;5072290;28;20038;-67
2021/08/21 01:04:31;;;;;;;11.15;6.05;;;;;;;;;;5071268;28;20009;-66
2021/08/21 01:06:57;;;;;;;12.73;6.50;;;;;;;;;;5071436;28;20051;-67
2021/08/21 01:09:23;;;;;;;13.52;6.53;;;;;;;;;;5071751;28;20502;-66
2021/08/21 01:11:50;;;;;;;16.92;6.47;;;;;;;;;;5068668;28;20484;-66
2021/08/21 01:14:16;;;;;;;13.40;6.90;;;;;;;;;;5072062;28;20040;-66
2021/08/21 01:16:42;;;;;;;14.25;6.28;;;;;;;;;;5069700;28;20020;-66
2021/08/21 01:19:08;;;;;;;12.27;6.18;;;;;;;;;;5072041;28;20183;-66
2021/08/21 01:21:35;;;;;;;22.85;7.40;;;;;;;;;;5071270;28;20147;-66
2021/08/21 01:24:01;;;;;;;10.43;6.40;;;;;;;;;;5071355;28;20037;-66
2021/08/21 01:26:27;;;;;;;12.75;6.60;;;;;;;;;;5073322;28;20361;-66
2021/08/21 01:28:53;;;;;;;11.15;6.70;;;;;;;;;;5071561;28;20078;-67
2021/08/21 01:31:19;;;;;;;10.40;6.28;;;;;;;;;;5071811;28;20031;-66
2021/08/21 01:33:45;;;;;;;12.73;6.72;;;;;;;;;;5073183;28;20028;-66
2021/08/21 01:36:11;;;;;;;12.38;6.78;;;;;;;;;;5069816;28;20024;-66
2021/08/21 01:38:53;;;;;;;9.20;6.07;;;;;;;;;;5071400;28;20478;-67
2021/08/21 01:41:19;;;;;;;;;;;;;;;;;;5071869;28;20040;-67
2021/08/21 01:43:45;;;;;;;9.95;6.05;;;;;;;;;;5071523;28;19973;-66
2021/08/21 01:46:11;;;;;;;10.30;6.60;;;;;;;;;;5068231;28;20037;-66
2021/08/21 01:48:37;;;;;;;12.70;6.47;;;;;;;;;;5069705;28;20096;-67
2021/08/21 01:51:04;;;;;;;12.90;6.63;;;;;;;;;;5069818;28;20024;-66
2021/08/21 01:53:30;;;;;;;10.23;6.32;;;;;;;;;;5071393;28;20032;-67
2021/08/21 01:55:56;;;;;;;10.32;5.95;;;;;;;;;;5070692;28;20050;-67
2021/08/21 01:58:23;;;;;;;10.00;6.25;;;;;;;;;;5069673;28;20236;-67
2021/08/21 02:00:49;;;;;;;10.55;6.13;;;;;;;;;;5072856;28;20135;-66
2021/08/21 02:03:17;;;;;;;10.77;5.80;;;;;;;;;;5066792;28;20074;-67
2021/08/21 02:05:44;;;;;;;10.85;6.28;;;;;;;;;;5073811;28;20028;-68
2021/08/21 02:08:10;;;;;;;14.13;6.07;;;;;;;;;;5069707;28;20480;-66
2021/08/21 02:10:36;;;;;;;12.68;6.75;;;;;;;;;;5068651;28;20025;-69
2021/08/21 02:13:02;;;;;;;15.18;6.40;;;;;;;;;;5072965;28;20028;-66
2021/08/21 02:15:28;;;;;;;11.25;5.90;;;;;;;;;;5065824;28;20032;-66
2021/08/21 02:17:55;;;;;;;8.60;6.15;;;;;;;;;;5070728;28;20036;-66
2021/08/21 02:20:21;;;;;;;12.23;6.07;;;;;;;;;;5067225;28;20058;-67
2021/08/21 02:22:47;;;;;;;8.40;5.68;;;;;;;;;;5073555;28;20102;-67
2021/08/21 02:25:14;;;;;;;13.13;6.30;;;;;;;;;;5070376;28;20032;-66
2021/08/21 02:28:26;;;;;;;14.20;6.20;;;;;;;;;;5066053;28;20074;-67
2021/08/21 02:30:27;;;;;;;11.15;6.20;;;;;;;;;;5064621;28;20476;-66
2021/08/21 02:32:53;;;;;;;9.02;6.45;;;;;;;;;;5070615;28;20943;-66
2021/08/21 02:35:19;;;;;;;14.30;5.93;;;;;;;;;;5065323;28;20025;-66
2021/08/21 02:37:46;;;;;;;10.98;6.18;;;;;;;;;;5071334;28;20575;-66
2021/08/21 02:40:12;;;;;;;11.38;6.03;;;;;;;;;;5068715;28;20614;-66
2021/08/21 02:42:38;;;;;;;10.60;6.15;;;;;;;;;;5073485;28;20447;-66
2021/08/21 02:45:05;;;;;;;14.85;6.63;;;;;;;;;;5066285;28;20036;-66
2021/08/21 02:47:31;;;;;;;13.55;6.28;;;;;;;;;;5066191;28;20074;-66
2021/08/21 02:49:57;;;;;;;11.93;5.90;;;;;;;;;;5062488;28;20017;-67
2021/08/21 02:52:23;;;;;;;11.45;5.85;;;;;;;;;;5068887;28;20025;-66
2021/08/21 02:54:49;;;;;;;9.05;6.05;;;;;;;;;;5070184;28;20024;-66
2021/08/21 02:57:16;;;;;;;11.20;6.05;;;;;;;;;;5068976;28;20021;-66
2021/08/21 02:59:42;;;;;;;8.40;5.63;;;;;;;;;;5069258;28;20097;-66
2021/08/21 03:02:08;;;;;;;10.70;6.30;;;;;;;;;;5069317;28;20028;-66
2021/08/21 03:04:34;;;;;;;14.13;6.28;;;;;;;;;;5065516;28;20040;-66
2021/08/21 03:07:00;;;;;;;11.23;5.80;;;;;;;;;;5065752;28;20024;-66
2021/08/21 03:09:26;;;;;;;11.25;6.22;;;;;;;;;;5065075;28;20039;-66
2021/08/21 03:11:52;;;;;;;11.48;6.53;;;;;;;;;;5068699;28;20028;-66
2021/08/21 03:14:18;;;;;;;11.45;6.05;;;;;;;;;;5066218;28;20043;-66
2021/08/21 03:16:45;;;;;;;11.45;6.57;;;;;;;;;;5065255;28;20217;-66
2021/08/21 03:19:11;;;;;;;9.20;5.82;;;;;;;;;;5068642;28;20017;-66
2021/08/21 03:21:37;;;;;;;13.45;6.97;;;;;;;;;;5067326;28;20044;-66
2021/08/21 03:24:05;;;;;;;13.38;6.18;;;;;;;;;;5065566;28;20036;-68
2021/08/21 03:26:31;;;;;;;11.27;5.97;;;;;;;;;;5068027;28;20027;-67
2021/08/21 03:28:58;;;;;;;11.77;6.13;;;;;;;;;;5065805;28;20028;-66
2021/08/21 03:31:24;;;;;;;9.45;6.00;;;;;;;;;;5066992;28;20024;-69
2021/08/21 03:33:50;;;;;;;13.32;6.32;;;;;;;;;;5064520;28;20032;-66
2021/08/21 03:36:16;;;;;;;12.98;6.63;;;;;;;;;;5066484;28;20047;-66
2021/08/21 03:38:42;;;;;;;13.13;6.82;;;;;;;;;;5066814;28;20468;-66
2021/08/21 03:41:08;;;;;;;10.50;6.30;;;;;;;;;;5066223;28;20123;-68
2021/08/21 03:43:35;;;;;;;11.45;6.85;;;;;;;;;;5064668;28;20036;-67
2021/08/21 03:46:01;;;;;;;8.73;6.80;;;;;;;;;;5068203;28;20035;-67
2021/08/21 03:48:27;;;;;;;9.27;6.15;;;;;;;;;;5067844;28;20039;-66
2021/08/21 03:50:53;;;;;;;11.30;6.65;;;;;;;;;;5064786;28;20028;-66
2021/08/21 03:53:19;;;;;;;14.40;6.20;;;;;;;;;;5062613;28;20150;-67
2021/08/21 03:55:48;;;;;;;16.23;6.25;;;;;;;;;;5068169;28;20032;-66
2021/08/21 03:58:14;;;;;;;9.68;6.53;;;;;;;;;;5064076;28;20033;-67
2021/08/21 04:00:41;;;;;;;14.52;6.70;;;;;;;;;;5066105;28;20041;-66
2021/08/21 04:03:08;;;;;;;10.05;6.25;;;;;;;;;;5066730;28;20083;-68
2021/08/21 04:05:34;;;;;;;11.23;5.68;;;;;;;;;;5063006;28;20540;-67
2021/08/21 04:08:01;;;;;;;10.30;5.90;;;;;;;;;;5068543;28;20028;-66
2021/08/21 04:10:27;;;;;;;9.38;6.38;;;;;;;;;;5062846;28;20025;-68
2021/08/21 04:12:53;;;;;;;10.77;6.07;;;;;;;;;;5066614;28;20032;-66
2021/08/21 04:15:19;;;;;;;11.98;5.80;;;;;;;;;;5064303;28;20025;-69
2021/08/21 04:17:45;;;;;;;10.73;6.22;;;;;;;;;;5067408;28;20103;-66
2021/08/21 04:20:12;;;;;;;12.65;6.68;;;;;;;;;;5065199;28;20048;-66
2021/08/21 04:22:38;;;;;;;8.98;6.35;;;;;;;;;;5064564;28;20036;-66
2021/08/21 04:25:06;;;;;;;10.90;6.15;;;;;;;;;;5066776;28;20489;-66
2021/08/21 04:27:32;;;;;;;15.85;6.45;;;;;;;;;;5064256;28;20032;-66
2021/08/21 04:29:58;;;;;;;8.68;6.35;;;;;;;;;;5068429;28;20047;-67
2021/08/21 04:32:24;;;;;;;12.80;6.25;;;;;;;;;;5061811;28;20783;-66
2021/08/21 04:34:51;;;;;;;12.85;6.18;;;;;;;;;;5063847;28;20050;-66
2021/08/21 04:37:18;;;;;;;12.20;6.05;;;;;;;;;;5069435;28;20036;-66
2021/08/21 04:39:44;;;;;;;10.18;6.07;;;;;;;;;;5065374;28;20047;-67
2021/08/21 04:42:10;;;;;;;13.90;6.55;;;;;;;;;;5067983;28;20035;-66
2021/08/21 04:44:36;;;;;;;18.20;7.63;;;;;;;;;;5066725;28;20253;-66
2021/08/21 04:47:03;;;;;;;12.23;6.68;;;;;;;;;;5069432;28;20021;-66
2021/08/21 04:49:29;;;;;;;9.10;6.43;;;;;;;;;;5073546;28;20024;-66
2021/08/21 04:51:56;;;;;;;11.82;6.43;;;;;;;;;;5065623;28;20085;-66
2021/08/21 04:54:22;;;;;;;9.07;6.68;;;;;;;;;;5072765;28;20027;-66
2021/08/21 04:56:49;;;;;;;10.13;5.72;;;;;;;;;;5067100;28;20082;-66
2021/08/21 04:59:15;;;;;;;13.73;6.78;;;;;;;;;;5072276;28;20025;-66
2021/08/21 05:01:41;;;;;;;11.88;6.55;;;;;;;;;;5067611;28;20069;-66
2021/08/21 05:04:07;;;;;;;9.18;6.43;;;;;;;;;;5066512;28;20024;-66
2021/08/21 05:06:33;;;;;;;9.88;6.40;;;;;;;;;;5069091;28;20046;-67
2021/08/21 05:09:00;;;;;;;13.07;6.55;;;;;;;;;;5067789;28;20059;-66
2021/08/21 05:11:26;;;;;;;16.75;6.72;;;;;;;;;;5069517;28;20044;-66
2021/08/21 05:13:52;;;;;;;11.95;6.47;;;;;;;;;;5068923;28;20801;-66
2021/08/21 05:16:18;;;;;;;12.85;6.03;;;;;;;;;;5070263;28;20383;-66
2021/08/21 05:18:49;;;;;;;15.27;6.97;;;;;;;;;;5069872;28;20079;-67
2021/08/21 05:21:25;;;;;;;11.90;6.97;;;;;;;;;;5066332;28;20460;-66
2021/08/21 05:23:51;;;;;;;11.05;7.07;;;;;;;;;;5068243;28;20334;-66
2021/08/21 05:26:17;;;;;;;7.03;5.30;;;;;;;;;;5065775;28;20036;-66
2021/08/21 05:28:43;;;;;;;10.70;6.45;;;;;;;;;;5063662;28;20079;-69
2021/08/21 05:31:09;;;;;;;11.35;6.53;;;;;;;;;;5067668;28;20031;-69
2021/08/21 05:33:36;;;;;;;14.80;7.68;;;;;;;;;;5071644;28;20038;-69
2021/08/21 05:36:02;;;;;;;13.27;7.13;;;;;;;;;;5064101;28;20103;-71
2021/08/21 05:38:28;;;;;;;14.80;7.72;;;;;;;;;;5070088;28;20516;-70
2021/08/21 05:40:54;;;;;;;12.27;6.47;;;;;;;;;;5073191;28;20039;-71
2021/08/21 05:43:20;;;;;;;13.30;6.72;;;;;;;;;;5073690;28;20081;-69
2021/08/21 05:45:46;;;;;;;10.43;7.50;;;;;;;;;;5065482;28;20038;-67
2021/08/21 05:48:12;;;;;;;12.27;7.18;;;;;;;;;;5066066;28;20034;-67
2021/08/21 05:50:38;;;;;;;12.90;6.95;;;;;;;;;;5073172;28;20036;-71
2021/08/21 05:53:05;;;;;;;10.55;6.53;;;;;;;;;;5068387;28;20032;-68
2021/08/21 05:55:31;;;;;;;14.02;7.45;;;;;;;;;;5068139;28;20028;-67
2021/08/21 05:57:57;;;;;;;15.45;8.13;;;;;;;;;;5067503;28;20024;-68
2021/08/21 06:00:24;;;;;;;15.35;9.20;;;;;;;;;;5065108;28;20036;-69
2021/08/21 06:02:51;;;;;;;12.27;7.97;;;;;;;;;;5069031;28;20047;-70
2021/08/21 06:05:17;;;;;;;12.73;8.02;;;;;;;;;;5064283;28;20481;-67
2021/08/21 06:07:43;;;;;;;9.90;7.28;;;;;;;;;;5069105;28;20032;-67
2021/08/21 06:10:10;;;;;;;12.48;6.28;;;;;;;;;;5067263;28;20044;-68
2021/08/21 06:12:37;;;;;;;11.45;6.28;;;;;;;;;;5065913;28;20626;-72
2021/08/21 06:15:03;;;;;;;12.98;7.20;;;;;;;;;;5070636;28;20504;-68
2021/08/21 06:17:29;;;;;;;12.93;7.68;;;;;;;;;;5062918;28;20033;-70
2021/08/21 06:19:58;;;;;;;10.63;5.95;;;;;;;;;;5068835;28;20068;-66
2021/08/21 06:22:25;;;;;;;11.73;6.30;;;;;;;;;;5070384;28;20036;-70
2021/08/21 06:24:52;;;;;;;8.75;5.75;;;;;;;;;;5070031;28;20058;-66
2021/08/21 06:27:18;;;;;;;13.15;6.35;;;;;;;;;;5069590;28;20025;-66
2021/08/21 06:29:44;;;;;;;11.57;5.75;;;;;;;;;;5066849;28;20016;-66
2021/08/21 06:32:10;;;;;;;12.57;6.45;;;;;;;;;;5071530;28;20464;-66
2021/08/21 06:34:36;;;;;;;10.02;5.90;;;;;;;;;;5063981;28;20377;-66
2021/08/21 06:37:05;;;;;;;9.32;5.93;;;;;;;;;;5069797;28;20032;-66
2021/08/21 06:39:31;;;;;;;11.40;5.80;;;;;;;;;;5070020;28;20031;-66
2021/08/21 06:41:57;;;;;;;8.38;5.00;;;;;;;;;;5069658;28;20131;-66
2021/08/21 06:44:24;;;;;;;9.00;6.10;;;;;;;;;;5071605;28;20020;-66
2021/08/21 06:46:50;;;;;;;13.63;6.22;;;;;;;;;;5066059;28;20531;-66
2021/08/21 06:49:16;;;;;;;9.07;5.95;;;;;;;;;;5071702;28;20486;-67
2021/08/21 06:51:42;;;;;;;10.57;6.10;;;;;;;;;;5067950;28;20392;-66
2021/08/21 06:54:08;;;;;;;7.65;5.78;;;;;;;;;;5071983;28;20035;-66
2021/08/21 06:56:35;;;;;;;9.02;5.53;;;;;;;;;;5068855;28;20178;-68
2021/08/21 06:59:01;;;;;;;7.88;5.38;;;;;;;;;;5067260;28;20498;-66
2021/08/21 07:01:29;;;;;;;10.00;6.18;;;;;;;;;;5068173;28;20040;-67
2021/08/21 07:03:55;;;;;;;12.05;5.78;;;;;;;;;;5068118;28;20031;-66
2021/08/21 07:06:21;;;;;;;10.63;5.53;;;;;;;;;;5072534;28;20044;-68
2021/08/21 07:08:47;;;;;;;15.30;7.05;;;;;;;;;;5066963;28;20047;-66
2021/08/21 07:11:13;;;;;;;9.10;6.05;;;;;;;;;;5069572;28;20491;-66
2021/08/21 07:13:39;;;;;;;10.07;5.93;;;;;;;;;;5071084;28;20073;-66
2021/08/21 07:16:05;;;;;;;10.05;6.15;;;;;;;;;;5068119;28;20028;-67
2021/08/21 07:18:32;;;;;;;10.57;5.55;;;;;;;;;;5068030;28;20198;-68
2021/08/21 07:20:58;;;;;;;8.25;5.57;;;;;;;;;;5067475;28;20570;-67
2021/08/21 07:23:24;;;;;;;10.05;5.72;;;;;;;;;;5070594;28;20016;-66
2021/08/21 07:25:50;;;;;;;10.30;5.82;;;;;;;;;;5068961;28;20516;-66
2021/08/21 07:28:16;;;;;;;11.20;5.85;;;;;;;;;;5069881;28;20028;-67
2021/08/21 07:30:42;;;;;;;9.65;5.78;;;;;;;;;;5065710;28;20267;-66
2021/08/21 07:33:09;;;;;;;9.07;5.70;;;;;;;;;;5070340;28;20170;-66
2021/08/21 07:35:35;;;;;;;9.52;6.13;;;;;;;;;;5073439;28;20028;-67
2021/08/21 07:38:01;;;;;;;11.15;5.63;;;;;;;;;;5069347;28;20020;-70
2021/08/21 07:40:27;;;;;;;12.60;6.10;;;;;;;;;;5068996;28;20031;-66
2021/08/21 07:42:53;;;;;;;10.55;5.85;;;;;;;;;;5066682;28;20021;-70
2021/08/21 07:45:19;;;;;;;8.77;5.82;;;;;;;;;;5068070;28;20020;-68
2021/08/21 07:47:49;;;;;;;9.43;5.90;;;;;;;;;;5071059;28;20039;-71
2021/08/21 07:50:16;;;;;;;9.48;5.53;;;;;;;;;;5066289;28;20362;-68
2021/08/21 07:52:46;;;;;;;10.30;6.00;;;;;;;;;;5071030;28;20021;-70
2021/08/21 07:55:13;;;;;;;8.20;5.93;;;;;;;;;;5068630;28;20043;-66
2021/08/21 07:57:39;;;;;;;12.27;5.50;;;;;;;;;;5069580;28;20115;-70
2021/08/21 08:00:06;;;;;;;9.07;5.43;;;;;;;;;;5068313;28;20388;-68
2021/08/21 08:02:32;;;;;;;8.57;5.55;;;;;;;;;;5069437;28;20021;-70
2021/08/21 08:04:58;;;;;;;9.43;6.00;;;;;;;;;;5068818;28;20021;-67
2021/08/21 08:07:25;;;;;;;7.45;5.03;;;;;;;;;;5069002;28;20035;-70
2021/08/21 08:09:51;;;;;;;9.70;6.55;;;;;;;;;;5071503;28;20032;-68
2021/08/21 08:12:17;;;;;;;9.02;5.30;;;;;;;;;;5063420;28;20032;-67
2021/08/21 08:14:43;;;;;;;12.05;5.95;;;;;;;;;;5068138;28;20032;-67
2021/08/21 08:17:09;;;;;;;7.95;5.55;;;;;;;;;;5065652;28;20043;-67
2021/08/21 08:19:37;;;;;;;10.43;6.43;;;;;;;;;;5071782;28;20161;-68
2021/08/21 08:22:03;;;;;;;23.58;7.00;;;;;;;;;;5072965;28;20664;-71
2021/08/21 08:24:30;;;;;;;9.95;5.40;;;;;;;;;;5070664;28;20203;-71
2021/08/21 08:26:56;;;;;;;11.55;6.72;;;;;;;;;;5074945;28;20419;-70
2021/08/21 08:29:22;;;;;;;12.07;6.95;;;;;;;;;;5070389;28;20047;-69
2021/08/21 08:31:48;;;;;;;8.93;5.50;;;;;;;;;;5073854;28;20043;-70
2021/08/21 08:34:14;;;;;;;9.88;6.43;;;;;;;;;;5072829;28;20028;-67
2021/08/21 08:36:40;;;;;;;13.75;6.22;;;;;;;;;;5070739;28;20445;-68
2021/08/21 08:39:07;;;;;;;11.43;5.72;;;;;;;;;;5072717;28;20103;-67
2021/08/21 08:41:33;;;;;;;11.85;7.10;;;;;;;;;;5069280;28;20036;-67
2021/08/21 08:44:00;;;;;;;9.40;5.93;;;;;;;;;;5074466;28;20085;-67
2021/08/21 08:46:26;;;;;;;7.20;5.03;;;;;;;;;;5070619;28;20025;-68
2021/08/21 08:48:53;;;;;;;8.13;5.60;;;;;;;;;;5071192;28;20032;-68
2021/08/21 08:51:20;;;;;;;11.65;6.32;;;;;;;;;;5074055;28;20530;-67
2021/08/21 08:53:47;;;;;;;8.07;5.60;;;;;;;;;;5070543;28;20020;-67
2021/08/21 08:56:13;;;;;;;7.70;5.25;;;;;;;;;;5072323;28;20024;-70
2021/08/21 08:58:40;;;;;;;7.57;5.80;;;;;;;;;;5068058;28;20027;-70
2021/08/21 09:01:07;;;;;;;10.93;5.40;;;;;;;;;;5074579;28;20042;-68
2021/08/21 09:03:33;;;;;;;7.05;5.32;;;;;;;;;;5071169;28;20017;-68
2021/08/21 09:05:59;;;;;;;9.68;5.53;;;;;;;;;;5071561;28;20028;-67
2021/08/21 09:08:29;;;;;;;10.50;5.68;;;;;;;;;;5072729;28;20544;-71
2021/08/21 09:11:17;;;;;;;7.25;5.10;;;;;;;;;;5070413;28;20582;-68
2021/08/21 09:13:43;;;;;;;5.90;4.97;;;;;;;;;;5069370;28;20062;-70
2021/08/21 09:16:10;;;;;;;7.25;5.55;;;;;;;;;;5072995;28;20024;-74
2021/08/21 09:18:37;;;;;;;8.57;5.65;;;;;;;;;;5069622;28;20077;-73
2021/08/21 09:21:04;;;;;;;9.10;5.68;;;;;;;;;;5067480;28;20056;-70
2021/08/21 09:23:30;;;;;;;9.45;5.63;;;;;;;;;;5071662;28;20634;-73
2021/08/21 09:26:07;;;;;;;10.90;5.43;;;;;;;;;;5069794;28;20021;-68
2021/08/21 09:28:34;;;;;;;9.93;6.03;;;;;;;;;;5076210;28;20044;-70
2021/08/21 09:31:12;;;;;;;8.15;6.18;;;;;;;;;;5066293;28;20059;-69
2021/08/21 09:33:39;;;;;;;10.93;5.68;;;;;;;;;;5069782;28;20049;-71
2021/08/21 09:36:06;;;;;;;9.18;6.00;;;;;;;;;;5071314;28;20070;-68
2021/08/21 09:38:33;;;;;;;9.73;6.40;;;;;;;;;;5070446;28;20016;-69
2021/08/21 09:41:00;;;;;;;11.07;6.47;;;;;;;;;;5071368;28;20036;-68
2021/08/21 09:43:31;;;;;;;10.32;6.30;;;;;;;;;;5069010;28;20049;-67
2021/08/21 09:46:20;;;;;;;9.50;5.80;;;;;;;;;;5071538;28;20466;-68
2021/08/21 09:48:56;;;;;;;11.98;6.18;;;;;;;;;;5062822;28;20037;-69
2021/08/21 09:51:33;;;;;;;10.35;5.68;;;;;;;;;;5071599;28;20531;-68
2021/08/21 09:54:03;;;;;;;13.45;5.85;;;;;;;;;;5068222;28;20036;-69
2021/08/21 09:56:36;;;;;;;10.90;5.85;;;;;;;;;;5067706;28;20066;-69
2021/08/21 09:59:02;;;;;;;7.38;5.03;;;;;;;;;;5073696;28;20106;-76
2021/08/21 10:01:29;;;;;;;7.72;5.40;;;;;;;;;;5073846;28;20068;-79
2021/08/21 10:03:56;;;;;;;10.52;4.80;;;;;;;;;;5068267;28;20020;-68
2021/08/21 10:06:23;;;;;;;8.10;5.65;;;;;;;;;;5067685;28;20384;-68
2021/08/21 10:08:50;;;;;;;6.20;4.85;;;;;;;;;;5069223;28;20025;-70
2021/08/21 10:11:16;;;;;;;9.27;5.28;;;;;;;;;;5069932;28;20424;-69
2021/08/21 10:13:43;;;;;;;7.25;5.03;;;;;;;;;;5069046;28;20078;-69
2021/08/21 10:16:10;;;;;;;8.95;5.75;;;;;;;;;;5064799;28;20039;-70
2021/08/21 10:18:36;;;;;;;9.50;5.60;;;;;;;;;;5066265;28;20429;-72
2021/08/21 10:21:03;;;;;;;6.63;5.07;;;;;;;;;;5070610;28;20602;-73
2021/08/21 10:23:29;;;;;;;8.73;5.30;;;;;;;;;;5072921;28;20051;-73
2021/08/21 10:25:55;;;;;;;10.52;5.38;;;;;;;;;;5068558;28;20024;-72
2021/08/21 10:28:22;;;;;;;14.48;5.65;;;;;;;;;;5068059;28;20031;-72
2021/08/21 10:30:49;;;;;;;8.35;5.60;;;;;;;;;;5064636;28;20017;-70
2021/08/21 10:33:16;;;;;;;10.73;6.13;;;;;;;;;;5071525;28;20028;-70
2021/08/21 10:35:45;;;;;;;11.52;5.95;;;;;;;;;;5071899;28;20078;-69
2021/08/21 10:38:32;;;;;;;8.68;5.20;;;;;;;;;;5071824;28;20549;-71
2021/08/21 10:40:59;;;;;;;7.68;5.60;;;;;;;;;;5068238;28;20268;-71
2021/08/21 10:43:44;;;;;;;8.32;5.68;;;;;;;;;;5065462;28;20115;-70
2021/08/21 10:46:10;;;;;;;10.60;6.15;;;;;;;;;;5070564;28;20028;-68
2021/08/21 10:48:36;;;;;;;8.45;5.10;;;;;;;;;;5074872;28;20071;-72
2021/08/21 10:51:04;;;;;;;9.70;5.53;;;;;;;;;;5069474;28;20021;-70
2021/08/21 10:53:31;;;;;;;7.53;5.63;;;;;;;;;;5072180;28;20020;-68
2021/08/21 10:55:59;;;;;;;9.02;5.97;;;;;;;;;;5069445;28;20469;-71
2021/08/21 10:58:26;;;;;;;7.32;5.40;;;;;;;;;;5069486;28;20025;-70
2021/08/21 11:00:52;;;;;;;11.57;5.68;;;;;;;;;;5070199;28;20413;-70
2021/08/21 11:03:18;;;;;;;6.20;4.93;;;;;;;;;;5073011;28;20078;-68
2021/08/21 11:05:51;;;;;;;7.32;5.03;;;;;;;;;;5070045;28;20080;-69
2021/08/21 11:08:18;;;;;;;9.57;4.75;;;;;;;;;;5070680;28;20443;-67
2021/08/21 11:10:44;;;;;;;8.73;5.40;;;;;;;;;;5071824;28;20047;-71
2021/08/21 11:13:12;;;;;;;9.32;5.20;;;;;;;;;;5067522;28;20042;-68
2021/08/21 11:15:38;;;;;;;8.48;4.80;;;;;;;;;;5070326;28;20021;-69
2021/08/21 11:18:19;;;;;;;6.82;4.90;;;;;;;;;;5067168;28;20557;-68
2021/08/21 11:20:45;;;;;;;7.38;5.28;;;;;;;;;;5067980;28;20040;-74
2021/08/21 11:23:15;;;;;;;7.55;5.57;;;;;;;;;;5067587;28;20029;-69
2021/08/21 11:25:42;;;;;;;7.18;4.60;;;;;;;;;;5070440;28;20025;-68
2021/08/21 11:28:22;;;;;;;9.77;6.00;;;;;;;;;;5067879;28;20445;-72
2021/08/21 11:31:11;;;;;;;8.82;5.32;;;;;;;;;;5067339;28;20092;-70
2021/08/21 11:33:38;;;;;;;7.22;5.10;;;;;;;;;;5059936;28;20047;-69
2021/08/21 11:36:04;;;;;;;5.97;4.60;;;;;;;;;;5068032;28;20028;-68
2021/08/21 11:38:31;;;;;;;7.57;4.82;;;;;;;;;;5062938;28;20552;-72
2021/08/21 11:40:58;;;;;;;8.23;5.53;;;;;;;;;;5064993;28;20034;-68
2021/08/21 11:43:24;;;;;;;7.65;5.13;;;;;;;;;;5064024;28;20726;-69
2021/08/21 11:45:51;;;;;;;8.15;4.95;;;;;;;;;;5067012;28;20032;-68
2021/08/21 11:48:17;;;;;;;8.82;4.78;;;;;;;;;;5062795;28;20055;-69
2021/08/21 11:50:45;;;;;;;13.75;5.40;;;;;;;;;;5074414;28;20032;-70
2021/08/21 11:53:24;;;;;;;7.22;5.28;;;;;;;;;;5063447;28;20946;-72
2021/08/21 11:55:51;;;;;;;7.43;5.07;;;;;;;;;;5068054;28;20038;-73
2021/08/21 11:58:26;;;;;;;8.57;5.05;;;;;;;;;;5065002;28;20044;-69
2021/08/21 12:00:54;;;;;;;8.45;4.53;;;;;;;;;;5067774;28;20071;-70
2021/08/21 12:03:33;;;;;;;6.72;4.75;;;;;;;;;;5065970;28;20591;-68
2021/08/21 12:06:00;;;;;;;6.97;4.68;;;;;;;;;;5068344;28;20036;-70
2021/08/21 12:08:27;;;;;;;9.27;5.30;;;;;;;;;;5066614;28;20226;-69
2021/08/21 12:10:53;;;;;;;10.55;5.50;;;;;;;;;;5063859;28;20028;-70
2021/08/21 12:13:23;;;;;;;10.15;5.30;;;;;;;;;;5066268;28;20040;-69
2021/08/21 12:15:50;;;;;;;11.45;5.30;;;;;;;;;;5064864;28;20025;-69
2021/08/21 12:18:17;;;;;;;8.95;5.43;;;;;;;;;;5069755;28;20149;-68
2021/08/21 12:20:43;;;;;;;7.32;4.75;;;;;;;;;;5061367;28;20045;-69
2021/08/21 12:23:12;;;;;;;6.35;4.75;;;;;;;;;;5063681;28;20031;-68
2021/08/21 12:25:59;;;;;;;5.45;4.40;;;;;;;;;;5064183;28;20036;-68
2021/08/21 12:28:33;;;;;;;7.43;4.72;;;;;;;;;;5065874;28;20035;-69
2021/08/21 12:31:02;;;;;;;8.15;5.05;;;;;;;;;;5064571;28;20027;-68
2021/08/21 12:33:32;;;;;;;6.18;4.40;;;;;;;;;;5064504;28;20161;-71
2021/08/21 12:36:27;;;;;;;7.13;5.03;;;;;;;;;;5063222;28;20024;-69
2021/08/21 12:39:08;;;;;;;6.45;5.05;;;;;;;;;;5047600;28;20764;-71
2021/08/21 12:41:36;;;;;;;7.28;5.00;;;;;;;;;;5064663;28;20086;-69
2021/08/21 12:44:19;;;;;;;6.75;4.55;;;;;;;;;;5062452;28;20025;-69
2021/08/21 12:46:52;;;;;;;7.45;4.78;;;;;;;;;;5064201;28;20028;-69
2021/08/21 12:49:28;;;;;;;7.82;5.45;;;;;;;;;;5067111;28;20066;-70
2021/08/21 12:51:56;;;;;;;6.93;4.70;;;;;;;;;;5064358;28;20029;-70
2021/08/21 12:54:26;;;;;;;6.25;4.88;;;;;;;;;;5064780;28;20052;-70
2021/08/21 12:57:11;;;;;;;8.73;4.70;;;;;;;;;;5059942;28;20466;-69
2021/08/21 12:59:38;;;;;;;7.05;4.88;;;;;;;;;;5060438;28;20381;-68
2021/08/21 13:02:05;;;;;;;10.00;5.38;;;;;;;;;;5057423;28;20101;-67
2021/08/21 13:04:32;;;;;;;7.38;4.78;;;;;;;;;;5058529;28;20100;-70
2021/08/21 13:07:05;;;;;;;7.70;5.10;;;;;;;;;;5060008;28;20112;-70
2021/08/21 13:09:31;;;;;;;7.28;5.32;;;;;;;;;;5064914;28;20642;-70
2021/08/21 13:11:58;;;;;;;10.27;5.15;;;;;;;;;;5066606;28;20016;-68
2021/08/21 13:14:24;;;;;;;7.45;4.60;;;;;;;;;;5066634;28;20024;-67
2021/08/21 13:16:51;;;;;;;5.95;4.72;;;;;;;;;;5064283;28;20021;-67
2021/08/21 13:19:17;;;;;;;7.10;5.15;;;;;;;;;;5064144;28;20021;-68
2021/08/21 13:21:43;;;;;;;9.70;4.97;;;;;;;;;;5062541;28;20029;-68
2021/08/21 13:24:09;;;;;;;5.97;4.70;;;;;;;;;;5063355;28;20071;-68
2021/08/21 13:26:36;;;;;;;7.47;4.30;;;;;;;;;;5065754;28;20032;-67
2021/08/21 13:29:06;;;;;;;7.13;4.70;;;;;;;;;;5061927;28;20017;-67
2021/08/21 13:31:33;;;;;;;9.40;5.35;;;;;;;;;;5067974;28;20021;-68
2021/08/21 13:34:05;;;;;;;6.78;4.95;;;;;;;;;;5064828;28;20075;-68
2021/08/21 13:36:31;;;;;;;7.60;4.78;;;;;;;;;;5062350;28;20021;-67
2021/08/21 13:38:59;;;;;;;6.30;4.35;;;;;;;;;;5063797;28;20493;-70
2021/08/21 13:41:25;;;;;;;12.18;6.10;;;;;;;;;;5069305;28;20031;-72
2021/08/21 13:43:51;;;;;;;7.82;5.10;;;;;;;;;;5066193;28;20028;-70
2021/08/21 13:46:17;;;;;;;8.50;5.70;;;;;;;;;;5064290;28;20032;-70
2021/08/21 13:48:44;;;;;;;6.88;5.28;;;;;;;;;;5061119;28;20027;-67
2021/08/21 13:51:10;;;;;;;13.50;5.05;;;;;;;;;;5063236;28;20020;-68
2021/08/21 13:53:36;;;;;;;7.75;4.82;;;;;;;;;;5062724;28;20492;-69
2021/08/21 13:56:02;;;;;;;8.73;4.78;;;;;;;;;;5065333;28;20654;-70
2021/08/21 13:58:28;;;;;;;5.93;4.63;;;;;;;;;;5066604;28;20019;-68
2021/08/21 14:00:55;;;;;;;7.70;4.78;;;;;;;;;;5063806;28;20551;-73
2021/08/21 14:03:21;;;;;;;9.80;4.78;;;;;;;;;;5068377;28;20018;-69
2021/08/21 14:05:47;;;;;;;8.15;4.90;;;;;;;;;;5067861;28;20028;-72
2021/08/21 14:08:13;;;;;;;7.38;4.80;;;;;;;;;;5067162;28;20408;-71
2021/08/21 14:10:39;;;;;;;7.57;4.93;;;;;;;;;;5066600;28;20378;-69
2021/08/21 14:13:06;;;;;;;9.23;4.88;;;;;;;;;;5068660;28;20085;-70
2021/08/21 14:15:32;;;;;;;7.28;4.80;;;;;;;;;;5067841;28;20025;-69
2021/08/21 14:17:58;;;;;;;7.30;4.85;;;;;;;;;;5065009;28;20024;-69
2021/08/21 14:20:24;;;;;;;8.57;5.20;;;;;;;;;;5067500;28;20649;-71
2021/08/21 14:22:50;;;;;;;6.55;4.70;;;;;;;;;;5067462;28;20055;-73
2021/08/21 14:25:16;;;;;;;7.00;5.00;;;;;;;;;;5066367;28;20132;-69
2021/08/21 14:27:43;;;;;;;8.52;4.35;;;;;;;;;;5065488;28;20020;-69
2021/08/21 14:30:09;;;;;;;9.50;5.28;;;;;;;;;;5066262;28;20020;-69
2021/08/21 14:32:36;;;;;;;9.98;4.82;;;;;;;;;;5069162;28;20074;-70
2021/08/21 14:35:02;;;;;;;9.13;5.28;;;;;;;;;;5066854;28;20143;-70
2021/08/21 14:37:29;;;;;;;7.72;4.80;;;;;;;;;;5072002;28;20761;-69